Aarau, Switzerland
Current Conditions -  °F | °C
As of 5:20 PM on Friday 21 Nov 2014 (Local Time) from LSZH Reporting Station
Scattered Clouds Scattered Clouds  
Wind Chill: 46°   Ceiling: Unl
Heat Index: 46°   Visibility: 4mi
Dew Point: 43°   Wind: 1mph
Humidity: 87%   Direction: NA
Pressure: 30.12"   Gusts: NA
Location:  47.4°N, 8.04°E
Report Text: LSZH 211620Z VRB01KT 6000 FEW060 SCT090 08/06 Q1020 NOSIG
Loading
Personal Weather Stations






























Interactive Weather Map New forecast layout! Learn more

10-Day Weather Forecast

Advertisements
Track Severe Weather on mobile